createdAt,value
2023-03-24T12:02:08.337Z,16.40
2023-03-24T12:03:46.850Z,15.00
2023-03-24T12:05:32.096Z,17.80
2023-03-24T12:07:25.515Z,10.00
2023-03-24T12:09:18.829Z,15.20
2023-03-24T12:11:19.224Z,14.00
2023-03-24T12:13:32.150Z,18.20
2023-03-24T12:15:28.239Z,15.00
2023-03-24T12:17:26.705Z,13.20
2023-03-24T12:19:07.895Z,15.40
2023-03-24T12:21:01.739Z,21.20
2023-03-24T12:22:44.449Z,20.20
2023-03-24T12:24:33.178Z,26.60
2023-03-24T12:26:16.441Z,18.40
2023-03-24T12:28:06.776Z,23.80
2023-03-24T12:29:57.090Z,29.00
2023-03-24T12:31:37.906Z,33.20
2023-03-24T12:33:17.315Z,33.20
2023-03-24T12:35:09.640Z,38.00
2023-03-24T12:37:07.255Z,40.00
2023-03-24T12:38:39.190Z,40.80
2023-03-24T12:40:11.549Z,42.80
2023-03-24T12:41:57.059Z,36.20
2023-03-24T12:43:47.499Z,44.80
2023-03-24T12:45:35.005Z,45.80
2023-03-24T12:47:34.501Z,47.00
2023-03-24T12:49:09.836Z,47.00
2023-03-24T12:51:24.525Z,47.80
2023-03-24T12:53:14.352Z,49.00
2023-03-24T12:54:55.968Z,49.00
2023-03-24T12:56:32.140Z,55.25
2023-03-24T12:58:23.181Z,52.60
2023-03-24T13:00:01.801Z,55.25
2023-03-24T13:02:04.908Z,52.25
2023-03-24T13:04:08.058Z,52.25
2023-03-24T13:05:50.095Z,52.75
2023-03-24T13:07:25.983Z,53.25
2023-03-24T13:09:11.204Z,55.25
2023-03-24T13:10:50.349Z,55.50
2023-03-24T13:12:25.057Z,53.00
2023-03-24T13:13:57.000Z,60.25
2023-03-24T13:15:35.254Z,56.50
2023-03-24T13:17:46.221Z,63.50
2023-03-24T13:19:22.262Z,61.25
2023-03-24T13:21:01.434Z,59.25
2023-03-24T13:22:33.534Z,60.75
2023-03-24T13:24:12.867Z,58.50
2023-03-24T13:26:24.316Z,60.00
2023-03-24T13:27:57.763Z,59.25
2023-03-24T13:29:48.500Z,58.50
2023-03-24T13:31:22.195Z,62.75
2023-03-24T13:32:56.028Z,62.75
2023-03-24T13:35:06.255Z,64.75
2023-03-24T13:36:48.627Z,61.00
2023-03-24T13:38:30.551Z,56.25
2023-03-24T13:40:07.576Z,59.50
2023-03-24T13:42:04.338Z,55.50
2023-03-24T13:43:45.578Z,61.00
2023-03-24T13:45:37.479Z,63.75
2023-03-24T13:47:11.023Z,60.25
2023-03-24T13:48:55.538Z,61.25
2023-03-24T13:50:27.738Z,60.50
2023-03-24T13:52:03.490Z,57.25
2023-03-24T13:53:55.424Z,63.25
2023-03-24T13:55:28.371Z,60.75
2023-03-24T13:57:04.440Z,65.25
2023-03-24T13:58:59.057Z,64.25
2023-03-24T14:00:31.527Z,66.50
2023-03-24T14:02:29.081Z,64.00
2023-03-24T14:04:19.703Z,66.25
2023-03-24T14:05:59.809Z,61.50
2023-03-24T14:07:33.445Z,57.75
2023-03-24T14:09:06.077Z,62.00
2023-03-24T14:10:40.544Z,68.50
2023-03-24T14:12:19.808Z,65.75
2023-03-24T14:14:20.548Z,68.00
2023-03-24T14:16:43.689Z,67.00
2023-03-24T14:18:42.544Z,72.25
2023-03-24T14:20:28.706Z,75.00
2023-03-24T14:22:30.533Z,78.25
2023-03-24T14:26:00.803Z,79.50
2023-03-24T14:27:37.628Z,82.00
2023-03-24T14:29:38.336Z,81.25
2023-03-24T14:31:38.114Z,74.00
2023-03-24T14:33:24.378Z,81.50
2023-03-24T14:34:57.984Z,74.25
2023-03-24T14:36:40.634Z,73.75
2023-03-24T14:38:16.210Z,70.50
2023-03-24T14:39:48.381Z,67.75
2023-03-24T14:41:28.220Z,67.00
2023-03-24T14:43:16.460Z,64.75
2023-03-24T14:44:53.787Z,64.50
2023-03-24T14:46:37.022Z,53.50
2023-03-24T14:48:23.016Z,51.50
2023-03-24T14:49:55.886Z,45.20
2023-03-24T14:51:28.206Z,39.60
2023-03-24T14:53:02.750Z,38.60
2023-03-24T14:54:46.349Z,36.00
2023-03-24T14:56:19.084Z,35.40
2023-03-24T14:57:56.850Z,35.00
2023-03-24T14:59:56.868Z,37.60
2023-03-24T15:01:34.635Z,38.80
2023-03-24T15:04:05.704Z,40.40
2023-03-24T15:05:39.095Z,39.80
2023-03-24T15:07:11.656Z,35.40
2023-03-24T15:09:19.166Z,32.40
2023-03-24T15:11:04.619Z,30.80
2023-03-24T15:12:36.808Z,30.00
2023-03-24T15:14:17.566Z,29.00
2023-03-24T15:15:49.858Z,25.60
2023-03-24T15:17:23.654Z,22.20
2023-03-24T15:19:02.490Z,21.20
2023-03-24T15:20:36.446Z,23.20
2023-03-24T15:22:14.231Z,22.40
2023-03-24T15:23:47.528Z,27.20
2023-03-24T15:25:19.812Z,20.80
2023-03-24T15:27:07.117Z,22.60
2023-03-24T15:28:39.256Z,23.60
2023-03-24T15:30:16.931Z,23.80
2023-03-24T15:31:50.003Z,19.20
2023-03-24T15:33:22.801Z,22.80
2023-03-24T15:35:05.881Z,17.60
2023-03-24T15:36:40.211Z,24.00
2023-03-24T15:38:21.501Z,20.20
2023-03-24T15:40:01.845Z,23.40
2023-03-24T15:41:51.481Z,23.00
2023-03-24T15:43:24.443Z,22.40
2023-03-24T15:45:08.515Z,18.20
2023-03-24T15:46:43.254Z,19.20
2023-03-24T15:48:21.698Z,21.00
2023-03-24T15:50:01.089Z,18.40
2023-03-24T15:51:50.555Z,18.00
2023-03-24T15:53:27.349Z,19.00
2023-03-24T15:55:02.118Z,21.00
2023-03-24T15:56:36.528Z,22.60
2023-03-24T15:58:28.702Z,21.60
2023-03-24T16:00:00.927Z,23.40
2023-03-24T16:01:38.673Z,20.60
2023-03-24T16:03:11.031Z,22.60
2023-03-24T16:04:42.940Z,19.40
2023-03-24T16:06:15.824Z,19.20
2023-03-24T16:08:01.002Z,22.00
2023-03-24T16:09:38.134Z,24.20
2023-03-24T16:11:12.174Z,19.60
2023-03-24T16:12:44.125Z,17.20
2023-03-24T16:14:24.016Z,25.60
2023-03-24T16:16:10.083Z,26.20
2023-03-24T16:17:46.561Z,25.00
2023-03-24T16:19:18.457Z,21.60
2023-03-24T16:20:52.060Z,23.80
2023-03-24T16:22:24.272Z,20.60
2023-03-24T16:23:57.642Z,19.60
2023-03-24T16:25:30.124Z,21.80
2023-03-24T16:27:02.162Z,23.40
2023-03-24T16:28:34.542Z,21.00
2023-03-24T16:30:21.460Z,20.00
2023-03-24T16:31:56.664Z,22.80
2023-03-24T16:33:30.534Z,21.80
2023-03-24T16:35:03.004Z,20.80
2023-03-24T16:36:35.090Z,22.40
2023-03-24T16:38:07.085Z,23.80
2023-03-24T16:39:39.007Z,21.80
2023-03-24T16:41:13.332Z,20.40
2023-03-24T16:42:45.169Z,21.60
2023-03-24T16:44:20.346Z,22.20
2023-03-24T16:45:53.051Z,17.40
2023-03-24T16:47:25.741Z,23.20
2023-03-24T16:48:57.968Z,20.40
2023-03-24T16:50:35.634Z,22.60
2023-03-24T16:52:17.931Z,19.00
2023-03-24T16:53:50.557Z,20.60
2023-03-24T16:55:23.178Z,15.20
2023-03-24T16:56:55.448Z,21.60
2023-03-24T16:58:27.878Z,20.00
2023-03-24T17:00:02.275Z,22.20
2023-03-24T17:01:36.102Z,20.80
2023-03-24T17:03:08.454Z,18.40
2023-03-24T17:04:41.354Z,20.20
2023-03-24T17:06:17.089Z,15.60
2023-03-24T17:07:49.431Z,20.20
2023-03-24T17:09:21.820Z,18.80
2023-03-24T17:10:53.905Z,21.40
2023-03-24T17:12:26.194Z,23.00
2023-03-24T17:14:02.360Z,21.40
2023-03-24T17:15:34.707Z,21.80
2023-03-24T17:17:37.121Z,15.60
2023-03-24T17:19:09.970Z,17.40
2023-03-24T17:20:43.406Z,21.40
2023-03-24T17:22:17.481Z,14.25
2023-03-24T17:23:55.122Z,19.20
2023-03-24T17:25:29.562Z,15.80
2023-03-24T17:27:03.575Z,22.40
2023-03-24T17:28:36.229Z,20.20
2023-03-24T17:30:09.509Z,16.20
2023-03-24T17:31:43.524Z,20.40
2023-03-24T17:33:15.879Z,18.60
2023-03-24T17:34:47.896Z,19.20
2023-03-24T17:36:19.799Z,20.00
2023-03-24T17:37:51.864Z,17.40
2023-03-24T17:39:23.724Z,19.40
2023-03-24T17:41:02.372Z,21.20
2023-03-24T17:42:36.858Z,18.60
2023-03-24T17:44:08.810Z,20.40
2023-03-24T17:45:41.336Z,23.20
2023-03-24T17:47:13.230Z,20.80
2023-03-24T17:48:46.689Z,25.20
2023-03-24T17:50:19.886Z,28.00
2023-03-24T17:51:51.749Z,18.80
2023-03-24T17:53:27.166Z,27.00
2023-03-24T17:54:59.356Z,23.40
2023-03-24T17:56:31.618Z,22.40
2023-03-24T17:58:03.599Z,25.40
2023-03-24T17:59:37.349Z,21.20
2023-03-24T18:01:09.488Z,20.40
2023-03-24T18:02:47.333Z,20.40
2023-03-24T18:04:27.718Z,20.80
2023-03-24T18:06:06.572Z,20.00
2023-03-24T18:07:39.715Z,16.60
2023-03-24T18:09:11.805Z,21.80
2023-03-24T18:10:47.711Z,25.20
2023-03-24T18:12:23.863Z,23.40
2023-03-24T18:13:57.483Z,23.20
2023-03-24T18:15:34.810Z,30.60
2023-03-24T18:17:07.120Z,28.60
2023-03-24T18:18:39.252Z,31.20
2023-03-24T18:20:14.813Z,32.80
2023-03-24T18:21:51.869Z,36.00
2023-03-24T18:23:27.695Z,38.20
2023-03-24T18:25:03.915Z,37.20
2023-03-24T18:26:36.377Z,42.60
2023-03-24T18:28:09.656Z,40.60
2023-03-24T18:29:41.965Z,43.80
2023-03-24T18:31:51.209Z,44.00
2023-03-24T18:33:24.533Z,46.20
2023-03-24T18:35:01.092Z,45.80
2023-03-24T18:36:58.753Z,50.40
2023-03-24T18:38:33.195Z,48.80
2023-03-24T18:40:09.357Z,54.00
2023-03-24T18:41:41.421Z,49.40
2023-03-24T18:43:17.068Z,46.80
2023-03-24T18:44:52.305Z,51.20
2023-03-24T18:46:25.057Z,52.00
2023-03-24T18:47:57.053Z,53.20
2023-03-24T18:49:29.316Z,54.25
2023-03-24T18:51:01.450Z,53.00
2023-03-24T18:52:33.508Z,53.00
2023-03-24T18:54:06.672Z,59.00
2023-03-24T18:55:38.691Z,57.25
2023-03-24T18:57:17.182Z,66.00
2023-03-24T18:58:50.946Z,74.50
2023-03-24T19:00:30.533Z,76.75
2023-03-24T19:02:05.741Z,72.25
2023-03-24T19:03:39.224Z,81.25
2023-03-24T19:05:17.572Z,73.75
2023-03-24T19:06:54.505Z,83.00
2023-03-24T19:08:26.981Z,83.25
2023-03-24T19:10:00.052Z,82.25
2023-03-24T19:11:36.298Z,88.00
2023-03-24T19:13:09.969Z,94.20
2023-03-24T19:15:07.565Z,96.50
2023-03-24T19:16:39.822Z,102.00
2023-03-24T19:18:19.293Z,82.00
2023-03-24T19:19:51.352Z,93.00
2023-03-24T19:21:23.658Z,91.25
2023-03-24T19:22:55.899Z,119.75
2023-03-24T19:24:33.089Z,130.00
2023-03-24T19:26:05.676Z,103.60
2023-03-24T19:27:37.664Z,104.40
2023-03-24T19:29:09.694Z,107.80
2023-03-24T19:30:41.658Z,105.20
2023-03-24T19:32:15.077Z,107.00
2023-03-24T19:33:47.093Z,95.60
2023-03-24T19:35:19.148Z,110.60
2023-03-24T19:36:52.224Z,109.00
2023-03-24T19:38:24.307Z,112.40
2023-03-24T19:39:56.681Z,119.75
2023-03-24T19:41:28.620Z,104.00
2023-03-24T19:43:00.768Z,119.75
2023-03-24T19:44:32.716Z,123.00
2023-03-24T19:46:05.089Z,123.25
2023-03-24T19:47:37.812Z,121.75
2023-03-24T19:49:09.819Z,123.00
2023-03-24T19:50:42.921Z,128.50
2023-03-24T19:52:16.072Z,107.50
2023-03-24T19:53:48.104Z,129.50
2023-03-24T19:55:20.187Z,115.50
2023-03-24T19:56:52.645Z,120.50
2023-03-24T19:58:26.289Z,110.25
2023-03-24T19:59:58.267Z,117.00
2023-03-24T20:01:35.050Z,135.25
2023-03-24T20:03:07.157Z,118.75
2023-03-24T20:04:39.170Z,114.00
2023-03-24T20:06:11.336Z,119.50
2023-03-24T20:07:45.399Z,125.75
2023-03-24T20:09:17.476Z,116.75
2023-03-24T20:10:49.562Z,125.75
2023-03-24T20:12:26.778Z,117.75
2023-03-24T20:13:58.763Z,121.75
2023-03-24T20:15:55.184Z,116.50
2023-03-24T20:17:28.965Z,126.75
2023-03-24T20:19:01.159Z,128.00
2023-03-24T20:20:36.276Z,138.75
2023-03-24T20:22:08.208Z,138.00
2023-03-24T20:23:40.185Z,134.00
2023-03-24T20:25:13.698Z,136.00
2023-03-24T20:26:47.833Z,143.25
2023-03-24T20:28:20.600Z,144.00
2023-03-24T20:29:52.784Z,155.75
2023-03-24T20:31:25.175Z,164.00
2023-03-24T20:32:57.386Z,164.50
2023-03-24T20:34:32.128Z,172.00
2023-03-24T20:36:07.137Z,166.00
2023-03-24T20:37:40.316Z,173.25
2023-03-24T20:39:12.461Z,169.50
2023-03-24T20:40:44.384Z,155.00
2023-03-24T20:42:17.741Z,155.75
2023-03-24T20:43:49.653Z,160.50
2023-03-24T20:45:21.744Z,163.25
2023-03-24T20:46:54.905Z,156.50
2023-03-24T20:48:27.023Z,164.00
2023-03-24T20:49:59.089Z,180.25
2023-03-24T20:51:30.980Z,155.50
2023-03-24T20:53:02.906Z,165.00
2023-03-24T20:54:34.781Z,173.50
2023-03-24T20:56:13.393Z,159.75
2023-03-24T20:57:45.260Z,170.75
2023-03-24T20:59:17.401Z,176.25
2023-03-24T21:00:52.102Z,179.00
2023-03-24T21:02:24.420Z,174.75
2023-03-24T21:04:04.752Z,185.75
2023-03-24T21:05:40.067Z,168.25
2023-03-24T21:07:14.290Z,194.00
2023-03-24T21:08:46.447Z,180.25
2023-03-24T21:10:20.195Z,189.00
2023-03-24T21:11:54.376Z,189.75
2023-03-24T21:13:36.906Z,175.00
2023-03-24T21:15:09.973Z,169.50
2023-03-24T21:16:41.833Z,172.25
2023-03-24T21:18:14.991Z,159.25
2023-03-24T21:19:49.148Z,162.50
2023-03-24T21:21:21.319Z,157.75
2023-03-24T21:22:53.767Z,186.25
2023-03-24T21:24:26.136Z,205.00
2023-03-24T21:25:58.036Z,207.67
2023-03-24T21:27:30.926Z,203.33
2023-03-24T21:29:02.838Z,169.00
2023-03-24T21:31:00.215Z,197.67
2023-03-24T21:32:32.603Z,183.75
2023-03-24T21:34:04.615Z,181.50
2023-03-24T21:35:36.542Z,172.75
2023-03-24T21:37:18.622Z,170.00
2023-03-24T21:38:54.310Z,165.75
2023-03-24T21:40:26.319Z,157.00
2023-03-24T21:41:58.265Z,176.50
2023-03-24T21:43:30.643Z,156.25
2023-03-24T21:45:06.689Z,147.50
2023-03-24T21:46:43.188Z,172.50
2023-03-24T21:48:50.205Z,150.75
2023-03-24T21:50:25.875Z,164.00
2023-03-24T21:51:57.751Z,157.75
2023-03-24T21:53:35.016Z,158.75
2023-03-24T21:55:08.284Z,149.50
2023-03-24T21:56:40.359Z,163.00
2023-03-24T21:58:18.194Z,151.25
2023-03-24T21:59:50.044Z,137.75
2023-03-24T22:01:22.706Z,157.25
2023-03-24T22:02:54.790Z,145.00
2023-03-24T22:04:32.045Z,144.50
2023-03-24T22:06:05.257Z,142.75
2023-03-24T22:07:37.734Z,138.75
2023-03-24T22:09:10.680Z,130.75
2023-03-24T22:10:43.329Z,151.25
2023-03-24T22:12:15.160Z,149.50
2023-03-24T22:13:47.174Z,160.00
2023-03-24T22:15:23.446Z,126.25
2023-03-24T22:16:56.391Z,137.75
2023-03-24T22:18:29.811Z,134.75
2023-03-24T22:20:02.065Z,130.50
2023-03-24T22:21:33.985Z,127.00
2023-03-24T22:23:05.968Z,117.00
2023-03-24T22:24:38.180Z,125.50
2023-03-24T22:26:14.955Z,133.00
2023-03-24T22:27:50.576Z,110.50
2023-03-24T22:29:23.209Z,117.00
2023-03-24T22:31:08.587Z,134.00
2023-03-24T22:32:41.030Z,133.50
2023-03-24T22:34:15.969Z,121.25
2023-03-24T22:35:47.988Z,114.00
2023-03-24T22:37:20.277Z,119.25
2023-03-24T22:38:52.542Z,135.25
2023-03-24T22:42:25.952Z,120.25
2023-03-24T22:43:57.863Z,133.25
2023-03-24T22:46:00.042Z,138.00
2023-03-24T22:47:33.132Z,122.25
2023-03-24T22:49:05.182Z,132.50
2023-03-24T22:50:40.041Z,132.00
2023-03-24T22:52:11.917Z,129.25
2023-03-24T22:53:43.830Z,126.50
2023-03-24T22:55:15.802Z,126.00
2023-03-24T22:56:47.796Z,132.00
2023-03-24T22:58:19.721Z,141.00
2023-03-24T22:59:51.616Z,176.50
2023-03-24T23:01:25.210Z,180.50
2023-03-24T23:02:58.311Z,151.00
2023-03-24T23:04:30.461Z,161.00
2023-03-24T23:06:02.758Z,145.25
2023-03-24T23:07:40.050Z,128.00
2023-03-24T23:09:12.056Z,141.25
2023-03-24T23:10:52.286Z,146.75
2023-03-24T23:12:25.110Z,139.75
2023-03-24T23:14:05.246Z,133.00
2023-03-24T23:15:38.129Z,147.75
2023-03-24T23:17:10.042Z,140.50
2023-03-24T23:18:42.129Z,131.75
2023-03-24T23:20:15.060Z,140.00
2023-03-24T23:21:46.933Z,131.00
2023-03-24T23:23:18.842Z,139.75
2023-03-24T23:25:00.432Z,138.25
2023-03-24T23:26:34.832Z,130.75
2023-03-24T23:28:06.746Z,141.75
2023-03-24T23:29:40.501Z,129.25
2023-03-24T23:31:20.230Z,120.00
2023-03-24T23:32:52.453Z,129.75
2023-03-24T23:34:26.916Z,133.00
